Time;durP1;ratioP1;P1;durP2;ratioP2;P2;SDS_P1;SDS_P2;PMS_P1;PMS_P2;Temp;Humidity;BMP_temperature;BMP_pressure;BME280_temperature;BME280_humidity;BME280_pressure;Samples;Min_cycle;Max_cycle;Signal;HPM_P1;HPM_P2
2022/04/01 00:01:39;;;;;;;13.60;7.13;;;;;;;;;;5109188;28;20473;-60
2022/04/01 00:04:05;;;;;;;12.70;7.30;;;;;;;;;;5109111;28;20406;-60
2022/04/01 00:06:31;;;;;;;8.03;6.70;;;;;;;;;;5093365;28;20437;-63
2022/04/01 00:08:59;;;;;;;10.03;6.57;;;;;;;;;;5093229;28;20406;-57
2022/04/01 00:11:25;;;;;;;12.50;6.50;;;;;;;;;;5093291;28;20406;-57
2022/04/01 00:13:51;;;;;;;11.23;6.80;;;;;;;;;;5093404;28;20417;-58
2022/04/01 00:16:18;;;;;;;9.60;6.93;;;;;;;;;;5093127;28;20406;-58
2022/04/01 00:18:44;;;;;;;14.50;7.20;;;;;;;;;;5093173;28;20508;-58
2022/04/01 00:21:10;;;;;;;12.70;6.67;;;;;;;;;;5092903;28;20889;-57
2022/04/01 00:23:36;;;;;;;9.93;7.20;;;;;;;;;;5092986;28;20429;-63
2022/04/01 00:26:02;;;;;;;12.30;7.20;;;;;;;;;;5093112;28;20437;-65
2022/04/01 00:28:28;;;;;;;8.73;6.90;;;;;;;;;;5092977;28;20857;-57
2022/04/01 00:30:54;;;;;;;11.63;7.70;;;;;;;;;;5092978;28;20398;-64
2022/04/01 00:33:21;;;;;;;12.13;7.70;;;;;;;;;;5108717;28;20817;-62
2022/04/01 00:35:50;;;;;;;16.43;7.10;;;;;;;;;;5092851;28;20406;-60
2022/04/01 00:38:16;;;;;;;9.53;7.80;;;;;;;;;;5092732;28;20498;-60
2022/04/01 00:40:42;;;;;;;13.90;7.90;;;;;;;;;;5092748;28;20484;-63
2022/04/01 00:43:11;;;;;;;14.57;7.53;;;;;;;;;;5092756;28;20411;-62
2022/04/01 00:45:38;;;;;;;9.30;6.60;;;;;;;;;;5092834;28;20455;-66
2022/04/01 00:48:04;;;;;;;9.73;7.43;;;;;;;;;;5092627;28;20406;-64
2022/04/01 00:50:32;;;;;;;11.77;7.13;;;;;;;;;;5092733;28;20398;-63
2022/04/01 00:53:00;;;;;;;10.80;6.73;;;;;;;;;;5092653;28;20416;-65
2022/04/01 00:55:28;;;;;;;9.03;6.47;;;;;;;;;;5092654;28;20816;-64
2022/04/01 00:57:54;;;;;;;11.17;7.10;;;;;;;;;;5092511;28;20459;-56
2022/04/01 01:00:20;;;;;;;10.57;7.10;;;;;;;;;;5092684;28;20823;-57
2022/04/01 01:02:46;;;;;;;16.03;7.37;;;;;;;;;;5092612;28;20410;-61
2022/04/01 01:05:16;;;;;;;14.03;7.30;;;;;;;;;;5092475;28;20765;-55
2022/04/01 01:07:42;;;;;;;17.63;7.23;;;;;;;;;;5096732;28;20463;-54
2022/04/01 01:10:10;;;;;;;17.20;7.13;;;;;;;;;;5096798;28;20445;-57
2022/04/01 01:12:37;;;;;;;11.93;7.07;;;;;;;;;;5096763;28;20405;-62
2022/04/01 01:15:14;;;;;;;17.30;7.53;;;;;;;;;;5096688;28;20434;-62
2022/04/01 01:17:40;;;;;;;12.77;7.67;;;;;;;;;;5096542;28;20435;-65
2022/04/01 01:20:14;;;;;;;11.60;7.80;;;;;;;;;;5096450;28;20864;-63
2022/04/01 01:22:41;;;;;;;11.60;7.17;;;;;;;;;;5096394;28;20530;-64
2022/04/01 01:25:08;;;;;;;7.10;6.40;;;;;;;;;;5096498;28;20402;-64
2022/04/01 01:27:34;;;;;;;8.37;6.97;;;;;;;;;;5112127;28;20910;-64
2022/04/01 01:30:02;;;;;;;13.50;7.53;;;;;;;;;;5096333;28;20398;-65
2022/04/01 01:32:29;;;;;;;9.37;7.10;;;;;;;;;;5096451;28;20410;-63
2022/04/01 01:34:58;;;;;;;8.50;6.60;;;;;;;;;;5096188;28;20550;-64
2022/04/01 01:37:24;;;;;;;10.10;7.27;;;;;;;;;;5111819;28;20410;-64
2022/04/01 01:39:51;;;;;;;13.43;6.97;;;;;;;;;;5096351;28;20477;-63
2022/04/01 01:42:17;;;;;;;11.53;6.73;;;;;;;;;;5095988;28;20469;-61
2022/04/01 01:44:43;;;;;;;19.87;7.13;;;;;;;;;;5096143;28;20432;-65
2022/04/01 01:47:09;;;;;;;17.03;8.33;;;;;;;;;;5096080;28;20486;-65
2022/04/01 01:54:42;;;;;;;11.10;7.97;;;;;;;;;;5096051;28;20430;-64
2022/04/01 01:55:32;;;;;;;9.40;7.70;;;;;;;;;;5053345;28;20415;-64
2022/04/01 01:57:59;;;;;;;19.70;7.40;;;;;;;;;;5053459;28;20419;-64
2022/04/01 02:00:25;;;;;;;14.43;7.40;;;;;;;;;;5073233;28;20441;-63
2022/04/01 02:02:51;;;;;;;11.57;7.83;;;;;;;;;;5095988;28;20418;-63
2022/04/01 02:05:17;;;;;;;9.83;6.80;;;;;;;;;;5095619;28;20406;-65
2022/04/01 02:07:47;;;;;;;13.73;7.03;;;;;;;;;;5095627;28;20436;-65
2022/04/01 02:10:14;;;;;;;9.10;6.80;;;;;;;;;;5095649;28;20429;-64
2022/04/01 02:12:41;;;;;;;12.80;6.97;;;;;;;;;;5095524;28;20477;-63
2022/04/01 02:15:10;;;;;;;12.83;6.87;;;;;;;;;;5095551;28;20458;-63
2022/04/01 02:17:37;;;;;;;9.23;6.50;;;;;;;;;;5095377;28;20894;-65
2022/04/01 02:20:05;;;;;;;19.00;7.03;;;;;;;;;;5095164;28;20456;-63
2022/04/01 02:22:31;;;;;;;7.70;6.33;;;;;;;;;;5111100;28;20843;-63
2022/04/01 02:24:57;;;;;;;12.57;8.00;;;;;;;;;;5095374;28;20430;-62
2022/04/01 02:27:24;;;;;;;11.30;6.60;;;;;;;;;;5095320;28;20420;-59
2022/04/01 02:29:50;;;;;;;11.03;6.20;;;;;;;;;;5100635;28;20405;-54
2022/04/01 02:32:16;;;;;;;10.80;6.97;;;;;;;;;;5104574;28;20910;-64
2022/04/01 02:34:43;;;;;;;8.63;6.30;;;;;;;;;;5104006;28;20405;-58
2022/04/01 02:37:09;;;;;;;17.47;6.63;;;;;;;;;;5105700;28;20397;-58
2022/04/01 02:39:35;;;;;;;8.70;6.53;;;;;;;;;;5104377;28;20508;-59
2022/04/01 02:42:01;;;;;;;9.13;6.97;;;;;;;;;;5104065;28;20499;-60
2022/04/01 02:44:27;;;;;;;15.80;7.33;;;;;;;;;;5105556;28;20412;-56
2022/04/01 02:46:53;;;;;;;8.30;6.27;;;;;;;;;;5104000;28;21015;-57
2022/04/01 02:49:19;;;;;;;10.00;6.27;;;;;;;;;;5104446;28;20405;-61
2022/04/01 02:51:46;;;;;;;15.53;6.80;;;;;;;;;;5105692;28;20420;-60
2022/04/01 02:54:12;;;;;;;11.57;7.23;;;;;;;;;;5105250;28;20522;-59
2022/04/01 02:56:39;;;;;;;9.10;6.90;;;;;;;;;;5111781;28;20445;-58
2022/04/01 02:59:09;;;;;;;11.00;6.00;;;;;;;;;;5103189;28;20405;-61
2022/04/01 03:01:36;;;;;;;14.40;6.77;;;;;;;;;;5104606;28;20949;-57
2022/04/01 03:04:03;;;;;;;16.90;6.53;;;;;;;;;;5104868;28;20402;-58
2022/04/01 03:06:29;;;;;;;8.90;6.77;;;;;;;;;;5082504;28;20794;-58
2022/04/01 03:08:55;;;;;;;8.83;6.80;;;;;;;;;;5094413;28;20492;-59
2022/04/01 03:11:21;;;;;;;8.37;6.57;;;;;;;;;;5094511;28;20469;-64
2022/04/01 03:13:47;;;;;;;11.20;6.83;;;;;;;;;;5094399;28;20437;-62
2022/04/01 03:16:13;;;;;;;11.73;7.07;;;;;;;;;;5094365;28;20414;-63
2022/04/01 03:18:43;;;;;;;8.70;6.80;;;;;;;;;;5094345;28;20740;-55
2022/04/01 03:21:12;;;;;;;7.03;6.30;;;;;;;;;;5093987;28;20560;-57
2022/04/01 03:23:39;;;;;;;11.23;6.67;;;;;;;;;;5094099;28;20474;-56
2022/04/01 03:26:06;;;;;;;8.03;6.43;;;;;;;;;;5094073;28;20402;-59
2022/04/01 03:28:33;;;;;;;8.17;6.27;;;;;;;;;;5093468;28;20410;-58
2022/04/01 03:30:59;;;;;;;8.97;6.40;;;;;;;;;;5109743;28;20525;-60
2022/04/01 03:33:25;;;;;;;9.50;6.93;;;;;;;;;;5109611;28;20424;-58
2022/04/01 03:35:52;;;;;;;7.00;6.30;;;;;;;;;;5093975;28;20445;-58
2022/04/01 03:38:18;;;;;;;8.57;6.57;;;;;;;;;;5093831;28;20405;-57
2022/04/01 03:40:53;;;;;;;7.10;6.40;;;;;;;;;;5093550;28;21057;-62
2022/04/01 03:43:21;;;;;;;11.63;6.10;;;;;;;;;;5093746;28;20417;-56
2022/04/01 03:45:51;;;;;;;8.37;6.47;;;;;;;;;;5093648;28;20913;-57
2022/04/01 03:48:35;;;;;;;7.73;6.27;;;;;;;;;;5093567;28;20414;-60
2022/04/01 03:51:04;;;;;;;11.17;7.10;;;;;;;;;;5109185;28;20471;-57
2022/04/01 03:53:31;;;;;;;9.00;6.10;;;;;;;;;;5093673;28;20478;-61
2022/04/01 03:55:58;;;;;;;11.63;6.80;;;;;;;;;;5093380;28;20402;-58
2022/04/01 03:58:28;;;;;;;6.00;5.50;;;;;;;;;;5093337;28;20955;-61
2022/04/01 04:00:54;;;;;;;7.60;5.60;;;;;;;;;;5108961;28;20461;-59
2022/04/01 04:03:21;;;;;;;8.87;5.70;;;;;;;;;;5093445;28;20864;-58
2022/04/01 04:05:48;;;;;;;6.80;6.20;;;;;;;;;;5093347;28;20917;-58
2022/04/01 04:08:17;;;;;;;12.07;5.50;;;;;;;;;;5108974;28;20449;-63
2022/04/01 04:10:46;;;;;;;9.37;6.17;;;;;;;;;;5108892;28;20402;-64
2022/04/01 04:13:12;;;;;;;12.47;6.63;;;;;;;;;;5093203;28;20412;-61
2022/04/01 04:15:43;;;;;;;10.00;5.83;;;;;;;;;;5093155;28;20455;-61
2022/04/01 04:18:12;;;;;;;12.23;6.37;;;;;;;;;;5093051;28;20409;-59
2022/04/01 04:20:41;;;;;;;15.93;7.13;;;;;;;;;;5092752;28;20957;-62
2022/04/01 04:23:19;;;;;;;7.60;6.40;;;;;;;;;;5093030;28;20449;-58
2022/04/01 04:26:00;;;;;;;8.47;6.40;;;;;;;;;;5108610;28;20443;-56
2022/04/01 04:28:27;;;;;;;6.90;6.10;;;;;;;;;;5108578;28;20417;-62
2022/04/01 04:31:00;;;;;;;10.70;6.67;;;;;;;;;;5092933;28;20401;-58
2022/04/01 04:33:29;;;;;;;10.23;6.13;;;;;;;;;;5108327;28;20414;-61
2022/04/01 04:35:55;;;;;;;10.37;6.40;;;;;;;;;;5092811;28;20398;-61
2022/04/01 04:38:22;;;;;;;13.37;5.73;;;;;;;;;;5108689;28;20402;-61
2022/04/01 04:40:50;;;;;;;6.93;5.50;;;;;;;;;;5107662;28;20453;-59
2022/04/01 04:43:18;;;;;;;6.70;6.00;;;;;;;;;;5108315;28;20453;-59
2022/04/01 04:45:49;;;;;;;8.50;6.13;;;;;;;;;;5092647;28;20394;-61
2022/04/01 04:48:19;;;;;;;9.93;6.20;;;;;;;;;;5092627;28;20420;-61
2022/04/01 04:50:49;;;;;;;8.03;6.27;;;;;;;;;;5092636;28;20974;-65
2022/04/01 04:53:15;;;;;;;10.77;5.60;;;;;;;;;;5092580;28;20428;-58
2022/04/01 04:55:41;;;;;;;7.10;6.17;;;;;;;;;;5092621;28;20398;-57
2022/04/01 04:58:11;;;;;;;9.77;6.20;;;;;;;;;;5092593;28;20406;-61
2022/04/01 05:00:39;;;;;;;7.00;5.67;;;;;;;;;;5108186;28;20409;-64
2022/04/01 05:03:08;;;;;;;8.20;6.57;;;;;;;;;;5092590;28;20456;-56
2022/04/01 05:05:44;;;;;;;7.67;6.20;;;;;;;;;;5092573;28;20771;-62
2022/04/01 05:08:22;;;;;;;10.70;7.00;;;;;;;;;;5092576;28;20409;-58
2022/04/01 05:10:53;;;;;;;6.70;5.97;;;;;;;;;;5107855;28;20478;-58
2022/04/01 05:13:23;;;;;;;7.13;6.40;;;;;;;;;;5092570;28;20776;-58
2022/04/01 05:15:52;;;;;;;9.23;6.40;;;;;;;;;;5092318;28;20406;-57
2022/04/01 05:18:25;;;;;;;8.57;6.33;;;;;;;;;;5092357;28;20406;-59
2022/04/01 05:20:55;;;;;;;6.67;6.07;;;;;;;;;;5092176;28;20473;-62
2022/04/01 05:23:54;;;;;;;9.37;6.63;;;;;;;;;;5092375;28;20413;-61
2022/04/01 05:26:22;;;;;;;8.27;5.73;;;;;;;;;;5058508;28;20428;-62
2022/04/01 05:28:55;;;;;;;9.20;6.43;;;;;;;;;;5092194;28;20398;-65
2022/04/01 05:31:41;;;;;;;8.07;6.27;;;;;;;;;;5092277;28;20413;-64
2022/04/01 05:34:19;;;;;;;8.20;6.47;;;;;;;;;;5081619;28;20422;-59
2022/04/01 05:36:45;;;;;;;9.30;6.50;;;;;;;;;;5091931;28;20409;-59
2022/04/01 05:39:15;;;;;;;13.47;6.40;;;;;;;;;;5091888;28;20429;-61
2022/04/01 05:41:41;;;;;;;7.67;6.40;;;;;;;;;;5091927;28;20983;-64
2022/04/01 05:44:09;;;;;;;15.17;7.13;;;;;;;;;;5092297;28;20412;-64
2022/04/01 05:46:36;;;;;;;12.20;6.63;;;;;;;;;;5092067;28;20414;-62
2022/04/01 05:49:02;;;;;;;13.07;6.60;;;;;;;;;;5091994;28;20408;-62
2022/04/01 05:51:30;;;;;;;9.53;6.10;;;;;;;;;;5092394;28;20406;-61
2022/04/01 05:53:57;;;;;;;10.10;6.93;;;;;;;;;;5095805;28;20481;-59
2022/04/01 05:56:23;;;;;;;13.10;6.27;;;;;;;;;;5111657;28;20759;-57
2022/04/01 05:58:52;;;;;;;11.77;6.70;;;;;;;;;;5095915;28;20493;-61
2022/04/01 06:01:36;;;;;;;13.93;6.60;;;;;;;;;;5095687;28;20453;-60
2022/04/01 06:04:21;;;;;;;11.50;6.90;;;;;;;;;;5095504;28;20409;-59
2022/04/01 06:06:49;;;;;;;6.77;6.13;;;;;;;;;;5095569;28;20412;-57
2022/04/01 06:09:18;;;;;;;7.23;6.53;;;;;;;;;;5095379;28;20491;-63
2022/04/01 06:11:58;;;;;;;8.40;6.97;;;;;;;;;;5095363;28;20806;-57
2022/04/01 06:14:34;;;;;;;8.70;6.40;;;;;;;;;;5095337;28;20402;-59
2022/04/01 06:17:15;;;;;;;9.03;6.70;;;;;;;;;;5095324;28;20406;-62
2022/04/01 06:19:42;;;;;;;6.90;6.20;;;;;;;;;;5067342;28;20528;-54
2022/04/01 06:22:18;;;;;;;6.80;5.73;;;;;;;;;;5054921;28;20467;-58
2022/04/01 06:24:50;;;;;;;6.67;6.00;;;;;;;;;;5054951;28;20419;-57
2022/04/01 06:27:28;;;;;;;15.50;6.30;;;;;;;;;;5055014;28;20422;-57
2022/04/01 06:30:05;;;;;;;10.77;6.37;;;;;;;;;;5054942;28;20978;-54
2022/04/01 06:32:41;;;;;;;7.57;6.77;;;;;;;;;;5054927;28;20840;-56
2022/04/01 06:35:10;;;;;;;11.03;7.10;;;;;;;;;;5053762;28;20888;-55
2022/04/01 06:37:42;;;;;;;12.83;7.63;;;;;;;;;;5053594;28;20499;-58
2022/04/01 06:40:12;;;;;;;9.80;6.47;;;;;;;;;;5054827;28;20465;-57
2022/04/01 06:42:39;;;;;;;13.13;6.20;;;;;;;;;;5054682;28;20996;-54
2022/04/01 06:45:09;;;;;;;10.70;6.60;;;;;;;;;;5054764;28;20435;-57
2022/04/01 06:47:39;;;;;;;8.80;6.23;;;;;;;;;;5054696;28;20416;-54
2022/04/01 06:50:06;;;;;;;7.30;5.97;;;;;;;;;;5054602;28;20446;-57
2022/04/01 06:52:32;;;;;;;8.83;6.23;;;;;;;;;;5054499;28;20818;-55
2022/04/01 06:54:58;;;;;;;10.40;6.93;;;;;;;;;;5054464;28;20404;-57
2022/04/01 06:57:24;;;;;;;7.83;6.30;;;;;;;;;;5054307;28;20407;-56
2022/04/01 06:59:51;;;;;;;7.53;6.43;;;;;;;;;;5054405;28;20478;-59
2022/04/01 07:02:17;;;;;;;9.63;6.73;;;;;;;;;;5054244;28;20507;-57
2022/04/01 07:04:43;;;;;;;11.37;6.63;;;;;;;;;;5053324;28;20760;-56
2022/04/01 07:07:09;;;;;;;11.73;5.97;;;;;;;;;;5052910;28;20427;-59
2022/04/01 07:09:38;;;;;;;8.40;6.67;;;;;;;;;;5054139;28;20499;-55
2022/04/01 07:12:05;;;;;;;10.53;6.57;;;;;;;;;;5054093;28;20408;-59
2022/04/01 07:14:32;;;;;;;6.97;6.27;;;;;;;;;;5053994;28;20415;-59
2022/04/01 07:16:58;;;;;;;19.20;6.93;;;;;;;;;;5053956;28;20753;-56
2022/04/01 07:19:25;;;;;;;7.70;6.67;;;;;;;;;;5061948;28;20976;-54
2022/04/01 07:21:51;;;;;;;7.50;6.47;;;;;;;;;;5094148;28;20911;-58
2022/04/01 07:24:17;;;;;;;7.20;5.90;;;;;;;;;;5093980;28;20402;-57
2022/04/01 07:26:44;;;;;;;6.80;6.10;;;;;;;;;;5093936;28;20408;-58
2022/04/01 07:29:10;;;;;;;8.47;6.90;;;;;;;;;;5093890;28;20452;-57
2022/04/01 07:34:32;;;;;;;9.13;7.07;;;;;;;;;;5093851;28;20421;-57
2022/04/01 07:36:58;;;;;;;9.30;7.00;;;;;;;;;;5093670;28;20928;-59
2022/04/01 07:39:24;;;;;;;9.60;6.60;;;;;;;;;;5093739;28;20497;-60
2022/04/01 07:41:53;;;;;;;7.30;6.60;;;;;;;;;;5093734;28;20977;-56
2022/04/01 07:44:19;;;;;;;8.90;6.33;;;;;;;;;;5093765;28;20740;-56
2022/04/01 07:46:45;;;;;;;11.67;6.90;;;;;;;;;;5093690;28;20425;-60
2022/04/01 07:49:11;;;;;;;11.00;8.00;;;;;;;;;;5109300;28;20450;-54
2022/04/01 07:51:38;;;;;;;12.47;7.27;;;;;;;;;;5093360;28;20445;-60
2022/04/01 07:54:04;;;;;;;10.33;6.70;;;;;;;;;;5093454;28;20402;-57
2022/04/01 07:56:34;;;;;;;11.23;6.70;;;;;;;;;;5093304;28;20445;-58
2022/04/01 07:59:00;;;;;;;8.97;6.90;;;;;;;;;;5093442;28;20418;-58
2022/04/01 08:01:26;;;;;;;7.67;6.83;;;;;;;;;;5093172;28;20469;-60
2022/04/01 08:03:53;;;;;;;9.50;7.33;;;;;;;;;;5108990;28;20467;-56
2022/04/01 08:06:19;;;;;;;10.73;7.97;;;;;;;;;;5093385;28;20402;-60
2022/04/01 08:08:45;;;;;;;13.20;7.07;;;;;;;;;;5108894;28;20902;-57
2022/04/01 08:11:11;;;;;;;7.47;6.70;;;;;;;;;;5092924;28;20818;-60
2022/04/01 08:13:37;;;;;;;9.03;6.93;;;;;;;;;;5093046;28;20398;-60
2022/04/01 08:16:03;;;;;;;12.47;7.17;;;;;;;;;;5092949;28;20410;-62
2022/04/01 08:18:29;;;;;;;10.20;7.40;;;;;;;;;;5093086;28;20420;-59
2022/04/01 08:20:55;;;;;;;7.83;7.00;;;;;;;;;;5092708;28;20470;-60
2022/04/01 08:23:22;;;;;;;7.97;6.70;;;;;;;;;;5093109;28;20413;-60
2022/04/01 08:25:48;;;;;;;11.40;7.40;;;;;;;;;;5092965;28;20402;-61
2022/04/01 08:28:14;;;;;;;9.60;7.40;;;;;;;;;;5092898;28;20983;-58
2022/04/01 08:30:41;;;;;;;11.57;8.20;;;;;;;;;;5092844;28;20493;-58
2022/04/01 08:33:07;;;;;;;8.53;7.00;;;;;;;;;;5092770;28;20445;-61
2022/04/01 08:35:33;;;;;;;8.67;7.03;;;;;;;;;;5092836;28;20413;-58
2022/04/01 08:38:00;;;;;;;10.13;7.17;;;;;;;;;;5092824;28;20547;-60
2022/04/01 08:40:27;;;;;;;8.20;7.40;;;;;;;;;;5092688;28;20410;-64
2022/04/01 08:42:53;;;;;;;12.33;7.70;;;;;;;;;;5092607;28;20538;-57
2022/04/01 08:45:21;;;;;;;11.20;7.77;;;;;;;;;;5092712;28;20474;-58
2022/04/01 08:47:47;;;;;;;9.30;7.97;;;;;;;;;;5092487;28;20418;-57
2022/04/01 08:50:13;;;;;;;9.23;7.53;;;;;;;;;;5092471;28;20830;-59
2022/04/01 08:52:40;;;;;;;10.40;8.47;;;;;;;;;;5092608;28;20406;-57
2022/04/01 08:55:07;;;;;;;10.10;8.03;;;;;;;;;;5092540;28;20433;-55
2022/04/01 08:57:37;;;;;;;8.30;7.37;;;;;;;;;;5108132;28;20791;-56
2022/04/01 09:00:23;;;;;;;12.10;8.17;;;;;;;;;;5108123;28;20449;-54
2022/04/01 09:03:02;;;;;;;11.80;7.53;;;;;;;;;;5092233;28;20465;-58
2022/04/01 09:05:29;;;;;;;9.63;7.70;;;;;;;;;;5092402;28;20418;-57
2022/04/01 09:08:02;;;;;;;17.93;7.70;;;;;;;;;;5092385;28;20402;-57
2022/04/01 09:10:28;;;;;;;11.67;8.00;;;;;;;;;;5092409;28;20402;-54
2022/04/01 09:12:54;;;;;;;13.33;7.50;;;;;;;;;;5092270;28;20414;-55
2022/04/01 09:15:20;;;;;;;10.53;7.67;;;;;;;;;;5092496;28;20744;-57
2022/04/01 09:17:47;;;;;;;16.10;8.20;;;;;;;;;;5092280;28;20878;-55
2022/04/01 09:20:14;;;;;;;10.37;8.10;;;;;;;;;;5092108;28;20518;-55
2022/04/01 09:22:40;;;;;;;14.83;7.97;;;;;;;;;;5092154;28;20472;-56
2022/04/01 09:25:08;;;;;;;10.10;7.27;;;;;;;;;;5092310;28;20410;-54
2022/04/01 09:27:37;;;;;;;9.30;7.60;;;;;;;;;;5094465;28;20424;-65
2022/04/01 09:30:03;;;;;;;9.27;7.40;;;;;;;;;;5096283;28;20793;-56
2022/04/01 09:32:39;;;;;;;8.23;7.03;;;;;;;;;;5096571;28;20756;-56
2022/04/01 09:35:07;;;;;;;9.47;7.10;;;;;;;;;;5096154;28;20409;-56
2022/04/01 09:37:36;;;;;;;8.43;7.50;;;;;;;;;;5111794;28;20433;-59
2022/04/01 09:40:03;;;;;;;8.80;7.10;;;;;;;;;;5096030;28;20802;-54
2022/04/01 09:42:29;;;;;;;7.97;7.10;;;;;;;;;;5095966;28;20548;-55
2022/04/01 09:44:58;;;;;;;11.47;8.07;;;;;;;;;;5095959;28;20410;-57
2022/04/01 09:47:24;;;;;;;9.80;7.67;;;;;;;;;;5096022;28;20803;-57
2022/04/01 09:49:53;;;;;;;8.37;7.43;;;;;;;;;;5095990;28;20406;-58
2022/04/01 09:52:21;;;;;;;8.70;7.67;;;;;;;;;;5111677;28;20414;-58
2022/04/01 09:54:48;;;;;;;12.83;8.03;;;;;;;;;;5095802;28;20969;-63
2022/04/01 09:57:15;;;;;;;8.47;7.47;;;;;;;;;;5095843;28;20413;-60
2022/04/01 09:59:45;;;;;;;12.43;7.83;;;;;;;;;;5095838;28;20410;-59
2022/04/01 10:02:11;;;;;;;8.10;6.93;;;;;;;;;;5095534;28;20511;-57
2022/04/01 10:04:37;;;;;;;12.77;7.23;;;;;;;;;;5095557;28;20398;-59
2022/04/01 10:07:04;;;;;;;14.57;7.30;;;;;;;;;;5095596;28;20402;-57
2022/04/01 10:09:30;;;;;;;12.30;7.20;;;;;;;;;;5095441;28;20402;-58
2022/04/01 10:11:58;;;;;;;7.60;6.80;;;;;;;;;;5095580;28;20405;-56
2022/04/01 10:14:25;;;;;;;8.63;6.63;;;;;;;;;;5095305;28;20465;-58
2022/04/01 10:16:51;;;;;;;9.50;7.07;;;;;;;;;;5111135;28;20968;-57
2022/04/01 10:19:24;;;;;;;13.67;8.10;;;;;;;;;;5095201;28;20964;-59
2022/04/01 10:21:51;;;;;;;8.17;7.10;;;;;;;;;;5095241;28;20472;-59
2022/04/01 10:24:26;;;;;;;10.63;6.90;;;;;;;;;;5095438;28;20852;-58
2022/04/01 10:27:13;;;;;;;7.43;6.73;;;;;;;;;;5095218;28;20492;-60
2022/04/01 10:29:39;;;;;;;11.30;7.00;;;;;;;;;;5084492;28;20410;-59
2022/04/01 10:32:34;;;;;;;10.73;6.57;;;;;;;;;;5095186;28;20747;-59
2022/04/01 10:35:01;;;;;;;7.97;7.17;;;;;;;;;;5081646;28;20761;-61
2022/04/01 10:37:28;;;;;;;7.87;7.10;;;;;;;;;;5094927;28;20505;-58
2022/04/01 10:40:08;;;;;;;7.73;6.93;;;;;;;;;;5094657;28;20410;-59
2022/04/01 10:42:35;;;;;;;10.63;6.83;;;;;;;;;;5094746;28;20537;-59
2022/04/01 10:45:06;;;;;;;8.13;7.33;;;;;;;;;;5094861;28;20417;-61
2022/04/01 10:53:37;;;;;;;13.20;6.83;;;;;;;;;;5095027;28;20409;-64
2022/04/01 10:56:22;;;;;;;10.20;7.40;;;;;;;;;;5094605;28;20417;-58
2022/04/01 10:59:07;;;;;;;7.60;6.87;;;;;;;;;;5094758;28;20410;-60
2022/04/01 11:01:34;;;;;;;9.97;6.67;;;;;;;;;;5094411;28;20461;-62
2022/04/01 11:04:09;;;;;;;7.73;6.93;;;;;;;;;;5110147;28;20760;-60
2022/04/01 11:06:50;;;;;;;9.20;6.73;;;;;;;;;;5110206;28;20432;-60
2022/04/01 11:09:35;;;;;;;6.60;6.00;;;;;;;;;;5094444;28;20397;-60
2022/04/01 11:12:16;;;;;;;9.20;6.50;;;;;;;;;;5094249;28;20879;-61
2022/04/01 11:17:25;;;;;;;8.20;6.50;;;;;;;;;;5094358;28;20413;-64
2022/04/01 11:20:06;;;;;;;9.50;6.60;;;;;;;;;;5094305;28;20457;-61
2022/04/01 11:22:37;;;;;;;7.37;6.60;;;;;;;;;;5094041;28;20461;-63
2022/04/01 11:25:03;;;;;;;9.70;5.83;;;;;;;;;;5093989;28;20763;-59
2022/04/01 11:27:30;;;;;;;6.50;5.90;;;;;;;;;;5094361;28;20857;-63
2022/04/01 11:30:15;;;;;;;7.53;6.30;;;;;;;;;;5093958;28;20406;-60
2022/04/01 11:32:43;;;;;;;9.57;6.70;;;;;;;;;;5093976;28;20413;-59
2022/04/01 11:35:10;;;;;;;9.03;7.00;;;;;;;;;;5093863;28;20410;-65
2022/04/01 11:37:37;;;;;;;11.80;5.93;;;;;;;;;;5093764;28;20492;-59
2022/04/01 11:40:22;;;;;;;7.03;6.43;;;;;;;;;;5093643;28;20891;-63
2022/04/01 11:42:58;;;;;;;7.87;6.60;;;;;;;;;;5093759;28;20472;-66
2022/04/01 11:45:25;;;;;;;7.30;6.60;;;;;;;;;;5093480;28;20452;-67
2022/04/01 11:47:52;;;;;;;8.20;6.90;;;;;;;;;;5093758;28;20471;-58
2022/04/01 11:50:20;;;;;;;7.70;6.90;;;;;;;;;;5093248;28;20470;-59
2022/04/01 11:52:46;;;;;;;7.37;6.27;;;;;;;;;;5093591;28;20940;-61
2022/04/01 11:55:19;;;;;;;7.37;6.50;;;;;;;;;;5093346;28;20500;-60
2022/04/01 11:57:46;;;;;;;7.27;6.57;;;;;;;;;;5093417;28;20995;-65
2022/04/01 12:00:16;;;;;;;8.50;6.50;;;;;;;;;;5109300;28;20452;-63
2022/04/01 12:02:43;;;;;;;9.73;6.63;;;;;;;;;;5093283;28;20461;-63
2022/04/01 12:05:10;;;;;;;7.23;6.50;;;;;;;;;;5107884;28;20410;-63
2022/04/01 12:10:22;;;;;;;7.97;6.60;;;;;;;;;;5093626;28;20401;-64
2022/04/01 12:12:55;;;;;;;6.83;6.10;;;;;;;;;;5092741;28;20930;-62
2022/04/01 12:15:30;;;;;;;7.40;6.33;;;;;;;;;;5093434;28;20394;-69
2022/04/01 12:17:56;;;;;;;6.73;6.23;;;;;;;;;;5093146;28;20804;-63
2022/04/01 12:20:28;;;;;;;6.97;6.37;;;;;;;;;;5093216;28;20809;-60
2022/04/01 12:22:55;;;;;;;8.50;6.50;;;;;;;;;;5093035;28;20462;-62
2022/04/01 12:25:21;;;;;;;9.90;7.00;;;;;;;;;;5092151;28;20489;-62
2022/04/01 12:27:55;;;;;;;9.57;7.20;;;;;;;;;;5093238;28;20402;-63
2022/04/01 12:30:39;;;;;;;7.73;6.50;;;;;;;;;;5092466;28;20398;-60
2022/04/01 12:33:09;;;;;;;6.97;6.43;;;;;;;;;;5093043;28;20390;-61
2022/04/01 12:35:35;;;;;;;6.83;6.13;;;;;;;;;;5091732;28;20402;-62
2022/04/01 12:38:11;;;;;;;9.97;6.47;;;;;;;;;;5091757;28;20409;-69
2022/04/01 12:40:43;;;;;;;6.50;5.90;;;;;;;;;;5075472;28;20410;-64
2022/04/01 12:43:27;;;;;;;8.00;6.80;;;;;;;;;;5092565;28;20518;-57
2022/04/01 12:45:59;;;;;;;7.57;6.80;;;;;;;;;;5108481;28;20414;-60
2022/04/01 12:48:26;;;;;;;6.00;5.40;;;;;;;;;;5092724;28;20739;-64
2022/04/01 12:50:56;;;;;;;7.60;6.20;;;;;;;;;;5108586;28;20402;-62
2022/04/01 12:53:22;;;;;;;8.33;6.80;;;;;;;;;;5092752;28;20414;-67
2022/04/01 12:55:48;;;;;;;9.50;6.07;;;;;;;;;;5092926;28;20424;-67
2022/04/01 12:58:14;;;;;;;5.60;5.17;;;;;;;;;;5092744;28;20459;-65
2022/04/01 13:00:41;;;;;;;10.30;6.23;;;;;;;;;;5092239;28;20458;-67
2022/04/01 13:03:08;;;;;;;6.60;5.90;;;;;;;;;;5092038;28;20552;-61
2022/04/01 13:05:34;;;;;;;10.13;5.77;;;;;;;;;;5092582;28;20493;-62
2022/04/01 13:08:01;;;;;;;9.47;6.30;;;;;;;;;;5092454;28;20967;-57
2022/04/01 13:10:27;;;;;;;8.40;5.90;;;;;;;;;;5092430;28;20402;-59
2022/04/01 13:12:55;;;;;;;6.43;5.90;;;;;;;;;;5092298;28;20405;-64
2022/04/01 13:15:27;;;;;;;7.20;5.80;;;;;;;;;;5092495;28;20562;-58
2022/04/01 13:17:57;;;;;;;8.03;6.07;;;;;;;;;;5092515;28;20410;-60
2022/04/01 13:20:26;;;;;;;12.13;6.13;;;;;;;;;;5092207;28;20535;-57
2022/04/01 13:22:53;;;;;;;6.97;6.37;;;;;;;;;;5092448;28;20556;-58
2022/04/01 13:25:19;;;;;;;7.07;6.37;;;;;;;;;;5092325;28;20858;-60
2022/04/01 13:27:45;;;;;;;6.97;6.30;;;;;;;;;;5092319;28;20471;-59
2022/04/01 13:30:12;;;;;;;7.70;6.80;;;;;;;;;;5092347;28;20801;-58
2022/04/01 13:32:38;;;;;;;7.20;6.20;;;;;;;;;;5108005;28;20439;-60
2022/04/01 13:35:05;;;;;;;9.03;6.23;;;;;;;;;;5092068;28;20497;-58
2022/04/01 13:37:31;;;;;;;6.23;5.73;;;;;;;;;;5092240;28;20467;-65
2022/04/01 13:39:57;;;;;;;8.97;6.17;;;;;;;;;;5092135;28;20398;-60
2022/04/01 13:42:26;;;;;;;8.73;6.20;;;;;;;;;;5091968;28;20514;-60
2022/04/01 13:44:52;;;;;;;6.70;6.00;;;;;;;;;;5092182;28;20401;-64
2022/04/01 13:47:19;;;;;;;7.00;6.17;;;;;;;;;;5092356;28;20960;-58
2022/04/01 13:49:45;;;;;;;6.33;5.73;;;;;;;;;;5092013;28;20414;-63
2022/04/01 13:52:11;;;;;;;6.40;5.43;;;;;;;;;;5107152;28;20417;-58
2022/04/01 13:54:39;;;;;;;5.80;5.30;;;;;;;;;;5091995;28;20410;-59
2022/04/01 13:57:05;;;;;;;6.03;5.53;;;;;;;;;;5091920;28;20770;-60
2022/04/01 13:59:32;;;;;;;7.17;6.10;;;;;;;;;;5091958;28;20410;-58
2022/04/01 14:01:58;;;;;;;20.63;5.33;;;;;;;;;;5091764;28;20825;-56
2022/04/01 14:04:24;;;;;;;11.50;5.93;;;;;;;;;;5091913;28;20402;-60
2022/04/01 14:06:51;;;;;;;7.43;5.90;;;;;;;;;;5092029;28;20402;-63
2022/04/01 14:09:18;;;;;;;9.30;5.40;;;;;;;;;;5107581;28;20833;-57
2022/04/01 14:11:45;;;;;;;8.97;5.37;;;;;;;;;;5107662;28;20429;-60
2022/04/01 14:14:11;;;;;;;10.03;5.90;;;;;;;;;;5110582;28;20413;-58
2022/04/01 14:16:38;;;;;;;9.43;6.27;;;;;;;;;;5095476;28;20433;-59
2022/04/01 14:19:06;;;;;;;8.00;5.77;;;;;;;;;;5095291;28;20402;-58
2022/04/01 14:21:36;;;;;;;11.40;5.83;;;;;;;;;;5095301;28;20460;-63
2022/04/01 14:24:02;;;;;;;11.10;6.17;;;;;;;;;;5095187;28;20925;-63
2022/04/01 14:26:31;;;;;;;6.80;5.67;;;;;;;;;;5095093;28;20394;-59
2022/04/01 14:31:57;;;;;;;5.80;5.33;;;;;;;;;;5095139;28;20405;-65
2022/04/01 14:34:23;;;;;;;9.37;6.40;;;;;;;;;;5095174;28;20401;-61
2022/04/01 14:36:49;;;;;;;10.90;5.97;;;;;;;;;;5095227;28;20766;-60
2022/04/01 14:39:15;;;;;;;7.37;5.40;;;;;;;;;;5094946;28;20814;-62
2022/04/01 14:41:44;;;;;;;5.80;5.30;;;;;;;;;;5094802;28;20820;-57
2022/04/01 14:44:10;;;;;;;6.80;5.67;;;;;;;;;;5094906;28;20441;-64
2022/04/01 14:46:37;;;;;;;8.53;5.53;;;;;;;;;;5094956;28;20402;-58
2022/04/01 14:49:04;;;;;;;5.57;5.13;;;;;;;;;;5094799;28;20414;-59
2022/04/01 14:51:30;;;;;;;5.77;5.27;;;;;;;;;;5094678;28;20783;-62
2022/04/01 14:53:56;;;;;;;8.37;5.10;;;;;;;;;;5094685;28;20414;-62
2022/04/01 14:56:22;;;;;;;8.40;5.50;;;;;;;;;;5094766;28;20414;-57
2022/04/01 14:58:48;;;;;;;9.40;5.40;;;;;;;;;;5094780;28;20510;-58
2022/04/01 15:01:14;;;;;;;6.27;5.67;;;;;;;;;;5110098;28;20540;-59
2022/04/01 15:03:40;;;;;;;5.67;5.17;;;;;;;;;;5094459;28;20409;-60
2022/04/01 15:06:06;;;;;;;8.87;5.60;;;;;;;;;;5093696;28;20411;-59
2022/04/01 15:08:32;;;;;;;9.63;4.80;;;;;;;;;;5093563;28;20413;-59